Terminal Aerodrome Forecast
Issued by NWS Sterling, VA

Current Version | Previous Version | Graphics & Text | Print | Product List | Glossary On
Versions: 1 2 3 4 5 6 7 8 9 10 11 12 13 14 15 16 17 18 19 20 21 22 23 24 25
102
FTUS41 KLWX 280820 AAB
TAFIAD
TAF AMD
KIAD 280820Z 2808/2912 VRB03KT 3SM BR OVC005
     FM281400 09006KT P6SM BKN015
     FM281800 11007KT P6SM SHRA BKN025
     FM282200 11007KT 3SM SHRA BR OVC008=

USA.gov is the U.S. government's official web portal to all federal, state and local government web resources and services.